createdAt,value
2018-01-01T00:01:24.630Z,349.70
2018-01-01T00:03:51.328Z,330.42
2018-01-01T00:06:18.728Z,358.90
2018-01-01T00:08:45.382Z,407.23
2018-01-01T00:11:12.036Z,308.13
2018-01-01T00:13:38.697Z,310.20
2018-01-01T00:16:05.483Z,273.50
2018-01-01T00:18:32.950Z,278.10
2018-01-01T00:20:59.602Z,264.88
2018-01-01T00:23:26.349Z,254.40
2018-01-01T00:25:53.027Z,240.87
2018-01-01T00:28:19.720Z,221.45
2018-01-01T00:30:46.403Z,226.80
2018-01-01T00:33:13.063Z,215.07
2018-01-01T00:35:39.722Z,231.40
2018-01-01T00:38:06.459Z,246.87
2018-01-01T00:40:33.872Z,233.73
2018-01-01T00:43:00.605Z,243.93
2018-01-01T00:45:27.292Z,229.85
2018-01-01T00:47:53.934Z,217.57
2018-01-01T00:50:20.965Z,216.55
2018-01-01T00:52:48.592Z,236.27
2018-01-01T00:55:15.279Z,242.90
2018-01-01T00:57:41.940Z,224.57
2018-01-01T01:00:08.640Z,219.68
2018-01-01T01:02:35.445Z,209.18
2018-01-01T01:05:03.071Z,199.73
2018-01-01T01:07:29.743Z,205.85
2018-01-01T01:09:58.107Z,199.62
2018-01-01T01:12:24.769Z,215.25
2018-01-01T01:14:52.192Z,223.82
2018-01-01T01:17:18.852Z,213.07
2018-01-01T01:19:45.526Z,231.27
2018-01-01T01:22:12.949Z,247.15
2018-01-01T01:24:39.592Z,248.48
2018-01-01T01:27:06.274Z,283.02
2018-01-01T01:29:33.698Z,301.95
2018-01-01T01:32:00.355Z,265.87
2018-01-01T01:34:27.088Z,263.50
2018-01-01T01:36:53.822Z,268.95
2018-01-01T01:39:20.453Z,270.98
2018-01-01T01:41:47.109Z,248.30
2018-01-01T01:44:13.792Z,258.00
2018-01-01T01:46:41.205Z,253.95
2018-01-01T01:49:07.945Z,226.88
2018-01-01T01:51:34.650Z,228.68
2018-01-01T01:54:01.307Z,215.77
2018-01-01T01:56:27.957Z,217.20
2018-01-01T01:58:54.634Z,187.30
2018-01-01T02:01:21.304Z,207.85
2018-01-01T02:03:48.776Z,195.85
2018-01-01T02:06:15.450Z,197.18
2018-01-01T02:08:42.097Z,201.85
2018-01-01T02:11:08.755Z,211.25
2018-01-01T02:13:35.430Z,207.00
2018-01-01T02:16:02.855Z,195.30
2018-01-01T02:18:29.518Z,177.57
2018-01-01T02:20:56.202Z,141.30
2018-01-01T02:23:22.860Z,102.43
2018-01-01T02:25:49.530Z,78.87
2018-01-01T02:28:16.247Z,53.55
2018-01-01T02:30:42.919Z,46.88
2018-01-01T02:33:09.590Z,40.83
2018-01-01T02:35:37.013Z,38.10
2018-01-01T02:38:03.673Z,38.70
2018-01-01T02:40:30.348Z,34.08
2018-01-01T02:42:57.005Z,36.00
2018-01-01T02:45:23.673Z,37.08
2018-01-01T02:47:50.339Z,37.30
2018-01-01T02:50:17.030Z,28.05
2018-01-01T02:52:43.722Z,37.08
2018-01-01T02:55:10.385Z,37.63
2018-01-01T02:57:37.835Z,88.28
2018-01-01T03:00:04.526Z,71.60
2018-01-01T03:02:31.185Z,80.82
2018-01-01T03:04:57.880Z,87.68
2018-01-01T03:07:24.545Z,79.57
2018-01-01T03:09:51.203Z,81.10
2018-01-01T03:12:17.879Z,86.95
2018-01-01T03:14:44.534Z,95.57
2018-01-01T03:17:11.243Z,82.90
2018-01-01T03:19:37.946Z,96.03
2018-01-01T03:22:05.367Z,83.28
2018-01-01T03:24:32.039Z,93.70
2018-01-01T03:26:59.468Z,85.20
2018-01-01T03:29:26.129Z,107.60
2018-01-01T03:31:52.802Z,109.70
2018-01-01T03:34:19.485Z,107.45
2018-01-01T03:36:46.130Z,78.30
2018-01-01T03:39:12.828Z,68.85
2018-01-01T03:41:39.529Z,63.42
2018-01-01T03:44:06.216Z,60.40
2018-01-01T03:46:32.892Z,58.20
2018-01-01T03:48:59.553Z,73.75
2018-01-01T03:51:26.217Z,89.72
2018-01-01T03:53:53.608Z,97.80
2018-01-01T03:56:20.309Z,81.03
2018-01-01T03:58:46.972Z,69.60
2018-01-01T04:01:14.382Z,97.55
2018-01-01T04:03:41.067Z,84.10
2018-01-01T04:06:08.483Z,61.00
2018-01-01T04:08:35.141Z,46.15
2018-01-01T04:11:01.847Z,31.33
2018-01-01T04:13:28.541Z,36.05
2018-01-01T04:15:55.198Z,24.17
2018-01-01T04:18:21.860Z,25.40
2018-01-01T04:20:49.260Z,21.40
2018-01-01T04:23:15.949Z,24.98
2018-01-01T04:25:43.369Z,21.55
2018-01-01T04:28:10.076Z,21.10
2018-01-01T04:30:36.728Z,23.75
2018-01-01T04:33:03.383Z,22.55
2018-01-01T04:35:30.091Z,19.08
2018-01-01T04:37:57.552Z,20.17
2018-01-01T04:40:24.951Z,20.20
2018-01-01T04:42:52.375Z,19.65
2018-01-01T04:45:19.032Z,22.80
2018-01-01T04:47:45.921Z,22.77
2018-01-01T04:50:12.583Z,22.20
2018-01-01T04:52:39.230Z,19.92
2018-01-01T04:55:06.622Z,18.50
2018-01-01T04:57:33.313Z,21.08
2018-01-01T04:59:59.971Z,20.50
2018-01-01T05:02:26.661Z,20.23
2018-01-01T05:04:53.345Z,18.25
2018-01-01T05:07:20.023Z,23.90
2018-01-01T05:09:46.677Z,17.48
2018-01-01T05:12:13.390Z,22.48
2018-01-01T05:14:40.845Z,21.10
2018-01-01T05:17:07.512Z,21.12
2018-01-01T05:19:34.930Z,19.62
2018-01-01T05:22:01.583Z,20.83
2018-01-01T05:24:29.210Z,21.55
2018-01-01T05:26:55.901Z,18.62
2018-01-01T05:29:23.336Z,20.52
2018-01-01T05:31:49.999Z,16.70
2018-01-01T05:34:16.678Z,16.20
2018-01-01T05:36:43.347Z,24.10
2018-01-01T05:39:10.028Z,23.20
2018-01-01T05:41:36.698Z,25.45
2018-01-01T05:44:03.427Z,34.42
2018-01-01T05:46:30.828Z,26.17
2018-01-01T05:48:57.481Z,21.23
2018-01-01T05:51:24.149Z,21.98
2018-01-01T05:53:50.804Z,23.58
2018-01-01T05:56:17.506Z,20.12
2018-01-01T05:58:44.212Z,24.20
2018-01-01T06:01:11.605Z,19.00
2018-01-01T06:03:38.254Z,20.27
2018-01-01T06:06:04.967Z,15.25
2018-01-01T06:08:32.374Z,18.50
2018-01-01T06:10:59.058Z,19.00
2018-01-01T06:13:26.481Z,16.23
2018-01-01T06:15:53.120Z,21.80
2018-01-01T06:18:19.798Z,20.55
2018-01-01T06:20:47.233Z,18.95
2018-01-01T06:23:14.805Z,20.77
2018-01-01T06:25:41.489Z,17.90
2018-01-01T06:28:08.156Z,16.85
2018-01-01T06:30:34.824Z,16.35
2018-01-01T06:33:01.531Z,16.85
2018-01-01T06:35:28.208Z,19.17
2018-01-01T06:37:54.832Z,15.63
2018-01-01T06:40:21.508Z,13.80
2018-01-01T06:42:48.153Z,15.23
2018-01-01T06:45:14.830Z,17.40
2018-01-01T06:47:41.578Z,16.23
2018-01-01T06:50:08.225Z,16.00
2018-01-01T06:52:34.903Z,16.37
2018-01-01T06:55:01.558Z,16.75
2018-01-01T06:57:28.234Z,14.10
2018-01-01T06:59:54.996Z,17.90
2018-01-01T07:02:21.654Z,19.60
2018-01-01T07:04:48.327Z,20.08
2018-01-01T07:07:14.991Z,29.15
2018-01-01T07:09:42.503Z,41.22
2018-01-01T07:12:09.178Z,28.40
2018-01-01T07:14:35.825Z,32.38
2018-01-01T07:17:03.302Z,34.13
2018-01-01T07:19:31.018Z,40.78
2018-01-01T07:21:57.682Z,37.65
2018-01-01T07:24:24.359Z,29.10
2018-01-01T07:26:52.033Z,28.98
2018-01-01T07:29:18.727Z,30.30
2018-01-01T07:31:45.389Z,43.05
2018-01-01T07:34:12.033Z,36.05
2018-01-01T07:36:38.737Z,36.80
2018-01-01T07:39:05.409Z,36.78
2018-01-01T07:41:32.094Z,45.20
2018-01-01T07:43:59.577Z,40.90
2018-01-01T07:46:26.239Z,35.13
2018-01-01T07:48:52.895Z,33.05
2018-01-01T07:51:19.612Z,32.03
2018-01-01T07:53:46.255Z,29.00
2018-01-01T07:56:12.906Z,30.95
2018-01-01T07:58:39.633Z,34.20
2018-01-01T08:01:06.286Z,32.25
2018-01-01T08:03:32.932Z,34.63
2018-01-01T08:05:59.630Z,35.75
2018-01-01T08:08:26.286Z,39.38
2018-01-01T08:10:52.954Z,40.35
2018-01-01T08:13:19.640Z,39.50
2018-01-01T08:15:47.053Z,39.22
2018-01-01T08:18:13.695Z,45.55
2018-01-01T08:20:40.378Z,39.70
2018-01-01T08:23:07.533Z,33.40
2018-01-01T08:25:35.964Z,34.42
2018-01-01T08:28:02.689Z,28.50
2018-01-01T08:30:29.367Z,24.63
2018-01-01T08:32:56.097Z,29.02
2018-01-01T08:35:22.803Z,22.15
2018-01-01T08:37:49.475Z,20.08
2018-01-01T08:40:16.886Z,23.12
2018-01-01T08:42:43.580Z,17.95
2018-01-01T08:45:10.247Z,24.80
2018-01-01T08:47:36.954Z,25.12
2018-01-01T08:50:03.612Z,28.00
2018-01-01T08:52:30.292Z,26.30
2018-01-01T08:54:58.574Z,29.17
2018-01-01T08:57:26.348Z,33.05
2018-01-01T08:59:54.626Z,31.77
2018-01-01T09:02:21.331Z,31.40
2018-01-01T09:04:47.982Z,31.55
2018-01-01T09:07:14.656Z,36.23
2018-01-01T09:09:41.417Z,35.17
2018-01-01T09:12:08.076Z,37.65
2018-01-01T09:20:18.445Z,42.00
2018-01-01T09:22:46.233Z,42.80
2018-01-01T09:25:13.690Z,46.05
2018-01-01T09:27:40.396Z,34.20
2018-01-01T09:30:07.083Z,47.33
2018-01-01T09:32:34.497Z,43.72
2018-01-01T09:35:01.197Z,42.78
2018-01-01T09:37:28.604Z,46.17
2018-01-01T09:39:55.265Z,47.97
2018-01-01T09:42:21.963Z,45.47
2018-01-01T09:44:48.632Z,33.00
2018-01-01T09:47:15.399Z,31.98
2018-01-01T09:49:42.120Z,29.63
2018-01-01T09:52:08.781Z,29.02
2018-01-01T09:54:35.479Z,27.10
2018-01-01T09:57:02.136Z,20.30
2018-01-01T09:59:28.859Z,19.87
2018-01-01T10:01:55.658Z,17.48
2018-01-01T10:04:22.391Z,14.70
2018-01-01T10:06:49.050Z,15.40
2018-01-01T10:09:15.777Z,14.50
2018-01-01T10:11:42.480Z,14.15
2018-01-01T10:14:10.156Z,14.50
2018-01-01T10:16:36.852Z,13.23
2018-01-01T10:19:03.563Z,12.23
2018-01-01T10:21:30.225Z,11.87
2018-01-01T10:23:58.040Z,17.07
2018-01-01T10:26:24.784Z,13.27
2018-01-01T10:28:51.628Z,13.95
2018-01-01T10:31:19.076Z,12.70
2018-01-01T10:33:47.438Z,11.70
2018-01-01T10:36:14.087Z,15.47
2018-01-01T10:38:40.752Z,13.70
2018-01-01T10:41:07.458Z,12.80
2018-01-01T10:43:34.155Z,10.48
2018-01-01T10:46:00.939Z,10.32
2018-01-01T10:48:27.650Z,14.35
2018-01-01T10:50:54.340Z,11.43
2018-01-01T10:53:21.000Z,13.82
2018-01-01T10:55:47.717Z,11.17
2018-01-01T10:58:16.072Z,9.80
2018-01-01T11:00:42.769Z,11.35
2018-01-01T11:03:10.212Z,10.73
2018-01-01T11:05:36.861Z,8.90
2018-01-01T11:08:03.631Z,8.90
2018-01-01T11:10:31.066Z,8.40
2018-01-01T11:12:58.063Z,6.87
2018-01-01T11:15:24.730Z,13.17
2018-01-01T11:17:51.421Z,5.87
2018-01-01T11:20:18.848Z,6.27
2018-01-01T11:22:45.506Z,4.33
2018-01-01T11:25:12.232Z,3.20
2018-01-01T11:27:38.965Z,2.13
2018-01-01T11:30:05.629Z,3.07
2018-01-01T11:32:32.613Z,2.00
2018-01-01T11:34:59.382Z,3.73
2018-01-01T11:37:26.270Z,1.73
2018-01-01T11:39:52.986Z,1.60
2018-01-01T11:42:19.670Z,1.50
2018-01-01T11:44:46.763Z,3.10
2018-01-01T11:47:13.482Z,2.00
2018-01-01T11:49:40.968Z,3.03
2018-01-01T11:52:09.652Z,1.70
2018-01-01T11:54:36.986Z,1.43
2018-01-01T11:57:04.409Z,3.00
2018-01-01T11:59:31.093Z,2.53
2018-01-01T12:01:58.557Z,2.43
2018-01-01T12:04:26.010Z,3.73
2018-01-01T12:06:53.434Z,3.97
2018-01-01T12:09:20.175Z,2.10
2018-01-01T12:11:46.857Z,2.20
2018-01-01T12:14:13.529Z,2.33
2018-01-01T12:16:40.268Z,2.10
2018-01-01T12:19:07.017Z,2.20
2018-01-01T12:21:33.750Z,2.40
2018-01-01T12:24:01.354Z,2.27
2018-01-01T12:26:28.027Z,2.85
2018-01-01T12:28:55.122Z,4.50
2018-01-01T12:31:21.847Z,1.83
2018-01-01T12:33:49.337Z,1.73
2018-01-01T12:36:16.231Z,3.83
2018-01-01T12:38:43.063Z,3.20
2018-01-01T12:41:09.817Z,2.70
2018-01-01T12:43:36.545Z,1.60
2018-01-01T12:46:03.364Z,3.80
2018-01-01T12:48:30.097Z,3.03
2018-01-01T12:50:56.805Z,5.20
2018-01-01T12:53:23.595Z,2.93
2018-01-01T12:55:50.256Z,5.90
2018-01-01T12:58:16.924Z,5.90
2018-01-01T13:00:43.653Z,4.90
2018-01-01T13:03:10.302Z,7.83
2018-01-01T13:05:37.007Z,11.67
2018-01-01T13:08:03.750Z,12.17
2018-01-01T13:10:30.470Z,14.10
2018-01-01T13:12:57.870Z,12.87
2018-01-01T13:15:24.632Z,13.70
2018-01-01T13:17:52.032Z,14.50
2018-01-01T13:20:18.725Z,17.70
2018-01-01T13:25:23.250Z,17.03
2018-01-01T13:27:50.002Z,15.60
2018-01-01T13:30:16.680Z,16.35
2018-01-01T13:32:43.349Z,16.50
2018-01-01T13:35:10.813Z,14.80
2018-01-01T13:37:38.269Z,13.87
2018-01-01T13:40:04.950Z,15.03
2018-01-01T13:42:31.682Z,17.50
2018-01-01T13:44:58.382Z,19.67
2018-01-01T13:47:25.063Z,15.30
2018-01-01T13:49:52.501Z,12.50
2018-01-01T13:52:19.646Z,13.48
2018-01-01T13:57:20.493Z,14.43
2018-01-01T13:59:47.401Z,16.73
2018-01-01T14:02:14.193Z,15.50
2018-01-01T14:04:41.167Z,13.17
2018-01-01T14:07:07.882Z,13.68
2018-01-01T14:09:34.559Z,19.20
2018-01-01T14:12:02.068Z,14.83
2018-01-01T14:14:31.180Z,16.42
2018-01-01T14:16:59.494Z,14.75
2018-01-01T14:19:37.540Z,14.03
2018-01-01T14:22:04.282Z,15.55
2018-01-01T14:24:30.995Z,12.47
2018-01-01T14:26:57.815Z,12.60
2018-01-01T14:29:24.640Z,8.73
2018-01-01T14:31:51.375Z,12.35
2018-01-01T14:34:18.952Z,13.40
2018-01-01T14:36:45.781Z,11.20
2018-01-01T14:39:12.614Z,12.50
2018-01-01T14:41:39.396Z,10.37
2018-01-01T14:44:06.161Z,14.77
2018-01-01T14:46:32.854Z,11.82
2018-01-01T14:48:59.589Z,12.37
2018-01-01T14:51:26.290Z,15.18
2018-01-01T14:53:53.004Z,14.18
2018-01-01T14:56:19.781Z,16.15
2018-01-01T14:58:46.501Z,15.38
2018-01-01T15:01:13.186Z,16.27
2018-01-01T15:03:41.125Z,15.63
2018-01-01T15:06:07.893Z,15.57
2018-01-01T15:08:34.615Z,15.98
2018-01-01T15:11:01.352Z,16.70
2018-01-01T15:13:28.089Z,12.20
2018-01-01T15:15:54.802Z,17.20
2018-01-01T15:18:21.906Z,17.83
2018-01-01T15:20:49.092Z,18.83
2018-01-01T15:23:15.837Z,15.00
2018-01-01T15:25:42.628Z,19.17
2018-01-01T15:28:10.131Z,17.00
2018-01-01T15:30:36.870Z,18.75
2018-01-01T15:33:03.572Z,17.98
2018-01-01T15:35:30.327Z,16.45
2018-01-01T15:37:57.067Z,21.02
2018-01-01T15:40:24.602Z,17.85
2018-01-01T15:42:51.308Z,17.77
2018-01-01T15:45:17.984Z,18.00
2018-01-01T15:47:44.717Z,20.80
2018-01-01T15:50:11.411Z,23.17
2018-01-01T15:52:38.082Z,18.40
2018-01-01T15:55:05.575Z,18.02
2018-01-01T15:57:32.293Z,18.42
2018-01-01T15:59:59.682Z,18.00
2018-01-01T16:02:26.438Z,15.38
2018-01-01T16:04:53.123Z,19.33
2018-01-01T16:07:19.796Z,14.75
2018-01-01T16:09:46.579Z,15.77
2018-01-01T16:12:13.239Z,16.52
2018-01-01T16:14:39.904Z,15.80
2018-01-01T16:17:06.637Z,12.60
2018-01-01T16:19:33.356Z,13.45
2018-01-01T16:22:00.020Z,14.38
2018-01-01T16:24:26.708Z,11.10
2018-01-01T16:26:53.382Z,14.43
2018-01-01T16:29:20.064Z,11.90
2018-01-01T16:31:46.778Z,13.52
2018-01-01T16:34:13.450Z,12.77
2018-01-01T16:36:40.168Z,14.10
2018-01-01T16:39:06.919Z,9.77
2018-01-01T16:41:33.595Z,12.32
2018-01-01T16:44:00.868Z,14.13
2018-01-01T16:46:27.550Z,14.07
2018-01-01T16:48:54.216Z,18.80
2018-01-01T16:51:20.895Z,16.15
2018-01-01T16:53:48.277Z,14.70
2018-01-01T16:56:14.947Z,14.57
2018-01-01T16:58:41.639Z,10.18
2018-01-01T17:01:08.963Z,12.02
2018-01-01T17:03:35.636Z,20.15
2018-01-01T17:06:02.394Z,16.45
2018-01-01T17:08:30.641Z,11.48
2018-01-01T17:10:57.305Z,11.05
2018-01-01T17:13:23.980Z,11.90
2018-01-01T17:15:52.441Z,14.57
2018-01-01T17:18:19.158Z,10.32
2018-01-01T17:20:48.712Z,8.75
2018-01-01T17:23:17.246Z,9.25
2018-01-01T17:25:46.549Z,9.25
2018-01-01T17:28:15.101Z,8.93
2018-01-01T17:30:43.529Z,10.45
2018-01-01T17:33:13.254Z,23.73
2018-01-01T17:35:41.775Z,20.50
2018-01-01T17:38:10.482Z,14.68
2018-01-01T17:40:38.331Z,13.73
2018-01-01T17:46:07.239Z,12.68
2018-01-01T17:48:33.990Z,13.55
2018-01-01T17:53:50.294Z,10.70
2018-01-01T17:56:17.859Z,11.70
2018-01-01T17:58:45.978Z,14.15
2018-01-01T18:01:12.958Z,11.95
2018-01-01T18:03:39.898Z,14.38
2018-01-01T18:06:07.017Z,11.45
2018-01-01T18:08:34.576Z,12.25
2018-01-01T18:11:03.060Z,12.88
2018-01-01T18:13:30.439Z,11.63
2018-01-01T18:15:58.946Z,11.98
2018-01-01T18:18:27.519Z,14.07
2018-01-01T18:20:56.164Z,10.20
2018-01-01T18:23:23.886Z,12.23
2018-01-01T18:25:50.541Z,10.20
2018-01-01T18:28:19.250Z,11.85
2018-01-01T18:30:47.332Z,13.10
2018-01-01T18:33:14.105Z,10.30
2018-01-01T18:35:43.353Z,12.25
2018-01-01T18:38:11.000Z,13.73
2018-01-01T18:40:37.700Z,16.75
2018-01-01T18:43:04.438Z,20.40
2018-01-01T18:45:31.131Z,19.67
2018-01-01T18:47:57.807Z,28.00
2018-01-01T18:50:25.233Z,20.95
2018-01-01T18:52:51.877Z,20.45
2018-01-01T18:55:19.511Z,17.25
2018-01-01T18:57:46.150Z,21.80
2018-01-01T19:00:12.877Z,16.98
2018-01-01T19:02:39.623Z,19.67
2018-01-01T19:05:06.270Z,18.62
2018-01-01T19:07:32.946Z,19.30
2018-01-01T19:09:59.723Z,15.90
2018-01-01T19:12:27.145Z,18.52
2018-01-01T19:14:53.804Z,19.12
2018-01-01T19:17:20.510Z,17.27
2018-01-01T19:19:47.249Z,15.50
2018-01-01T19:22:13.982Z,20.33
2018-01-01T19:24:40.681Z,16.37
2018-01-01T19:27:07.337Z,15.45
2018-01-01T19:29:33.978Z,17.75
2018-01-01T19:32:00.734Z,15.85
2018-01-01T19:34:27.375Z,17.75
2018-01-01T19:36:54.037Z,19.48
2018-01-01T19:39:21.643Z,17.12
2018-01-01T19:41:48.291Z,20.70
2018-01-01T19:44:15.062Z,16.45
2018-01-01T19:46:41.855Z,18.85
2018-01-01T19:49:08.501Z,22.73
2018-01-01T19:51:35.225Z,18.75
2018-01-01T19:54:02.692Z,19.55
2018-01-01T19:56:29.381Z,17.10
2018-01-01T19:58:56.022Z,20.85
2018-01-01T20:01:22.738Z,17.02
2018-01-01T20:03:49.423Z,19.55
2018-01-01T20:06:16.133Z,17.30
2018-01-01T20:08:42.815Z,20.80
2018-01-01T20:11:09.546Z,19.77
2018-01-01T20:13:36.231Z,17.15
2018-01-01T20:16:02.918Z,21.87
2018-01-01T20:18:29.625Z,17.00
2018-01-01T20:20:56.265Z,20.00
2018-01-01T20:23:22.980Z,20.62
2018-01-01T20:25:49.660Z,19.62
2018-01-01T20:28:16.335Z,18.98
2018-01-01T20:30:43.018Z,22.85
2018-01-01T20:33:10.434Z,19.73
2018-01-01T20:35:37.123Z,18.17
2018-01-01T20:38:05.125Z,19.25
2018-01-01T20:40:31.821Z,20.42
2018-01-01T20:42:58.502Z,17.35
2018-01-01T20:45:25.194Z,22.83
2018-01-01T20:47:51.861Z,20.85
2018-01-01T20:50:19.701Z,22.27
2018-01-01T20:52:47.153Z,23.20
2018-01-01T20:55:14.752Z,17.60
2018-01-01T20:57:41.440Z,16.83
2018-01-01T21:00:08.103Z,17.02
2018-01-01T21:02:34.814Z,12.45
2018-01-01T21:05:01.519Z,14.38
2018-01-01T21:07:28.197Z,12.45
2018-01-01T21:09:54.890Z,13.10
2018-01-01T21:12:21.617Z,16.80
2018-01-01T21:14:48.285Z,15.10
2018-01-01T21:17:15.174Z,16.20
2018-01-01T21:19:42.644Z,18.90
2018-01-01T21:22:09.318Z,14.93
2018-01-01T21:24:36.088Z,13.43
2018-01-01T21:27:02.787Z,15.43
2018-01-01T21:29:29.472Z,13.62
2018-01-01T21:31:56.246Z,13.65
2018-01-01T21:34:23.710Z,12.00
2018-01-01T21:36:50.379Z,10.90
2018-01-01T21:39:17.110Z,14.50
2018-01-01T21:41:43.767Z,16.20
2018-01-01T21:44:10.441Z,14.57
2018-01-01T21:46:37.183Z,20.75
2018-01-01T21:49:03.873Z,19.50
2018-01-01T21:51:30.527Z,23.85
2018-01-01T21:53:57.217Z,22.10
2018-01-01T21:56:23.914Z,19.80
2018-01-01T21:58:50.598Z,19.27
2018-01-01T22:01:17.285Z,19.77
2018-01-01T22:03:43.946Z,28.38
2018-01-01T22:06:10.728Z,20.98
2018-01-01T22:08:37.413Z,19.17
2018-01-01T22:11:04.909Z,16.27
2018-01-01T22:13:31.560Z,17.92
2018-01-01T22:15:58.255Z,20.42
2018-01-01T22:18:25.709Z,15.57
2018-01-01T22:20:53.129Z,12.15
2018-01-01T22:23:19.810Z,12.80
2018-01-01T22:25:47.239Z,12.20
2018-01-01T22:28:13.919Z,14.98
2018-01-01T22:30:41.461Z,15.63
2018-01-01T22:33:08.133Z,15.55
2018-01-01T22:35:35.597Z,11.43
2018-01-01T22:38:03.009Z,9.63
2018-01-01T22:40:29.697Z,9.18
2018-01-01T22:42:57.176Z,8.88
2018-01-01T22:45:23.953Z,7.07
2018-01-01T22:47:50.602Z,11.05
2018-01-01T22:50:18.070Z,6.97
2018-01-01T22:52:45.548Z,8.02
2018-01-01T22:55:12.185Z,11.63
2018-01-01T22:57:38.907Z,13.62
2018-01-01T23:00:05.773Z,11.43
2018-01-01T23:02:32.440Z,8.10
2018-01-01T23:04:59.843Z,10.95
2018-01-01T23:07:26.521Z,14.10
2018-01-01T23:09:53.172Z,16.42
2018-01-01T23:12:20.565Z,15.82
2018-01-01T23:14:47.237Z,18.73
2018-01-01T23:17:13.904Z,14.85
2018-01-01T23:19:40.633Z,18.37
2018-01-01T23:22:07.337Z,18.55
2018-01-01T23:24:33.997Z,20.55
2018-01-01T23:27:00.661Z,19.58
2018-01-01T23:29:27.328Z,20.75
2018-01-01T23:31:54.148Z,21.62
2018-01-01T23:34:20.821Z,20.98
2018-01-01T23:36:48.258Z,26.50
2018-01-01T23:39:14.955Z,23.98
2018-01-01T23:41:41.874Z,19.08
2018-01-01T23:44:09.259Z,22.23
2018-01-01T23:46:35.918Z,24.45
2018-01-01T23:49:03.409Z,26.83
2018-01-01T23:51:30.102Z,25.62
2018-01-01T23:53:57.423Z,28.35
2018-01-01T23:56:24.157Z,30.55
2018-01-01T23:58:50.825Z,28.85
